Airfield :
LOGIN :

Register | Disclaimer

   EN    FR    IT 

 










Legend :    VFR   Marginal VFR   IFR   Intensive IFR   Very Intensive IFR
Visi :
Ceiling :
>= 8 km
>= 3000ft
5 to 8 km
1000 to 3000 ft
1500m to 5 km
500 to 1000 ft
800 to 1500m
200 to 500 ft
< 800m
< 200 ft
Symbols :   Thunderstorms  Fog  Heavy snow  Heavy precipitations  Wind > 20 kt
SIGMETs :     Misc.  Thunderstorms  Icing  Turbulence  Mountain Waves  Volcanic Ashes







- Airport Elevation : 74 ft
- IATA code : EIN


EHEH - Eindhoven

CURRENT METAR :
  • 190755Z AUTO 31007KT 230V030 9999 NCD 22/13 Q1018 BLU VRB02KT CAVOK

EXPIRED METARs :
  • 190725Z AUTO 33005KT 270V070 9999 NCD 21/14 Q1018 BLU VRB02KT CAVOK
  • 190655Z AUTO 33003KT 330V080 9999 NCD 19/14 Q1018 BLU VRB02KT CAVOK
  • 190625Z AUTO 35003KT 320V040 9999 FEW062 18/14 Q1018 BLU VRB02KT CAVOK
  • 190555Z AUTO 32003KT 280V030 9999 NCD 17/14 Q1018 BLU VRB02KT CAVOK
  • 190525Z AUTO VRB02KT 9999 NCD 16/13 Q1018 BLU VRB02KT CAVOK
  • 190455Z AUTO VRB02KT 9999 FEW340 15/13 Q1018 BLU VRB02KT CAVOK

TAF TAF EHEH
Valid from the 19 at 06:00 until the 20 at 12:00 UTC


190511Z 1906/2012 VRB03KT CAVOK
BECMG 1907/1910 29006KT
BECMG 1922/2001 VRB03KT
BECMG 2007/2010 28006KT
No reported NOTAMs for that airfield.



MET'MAP, your aeronautical weather chart ! - Copyright ORBIFLY December 2007 - Disclaimer

ORBIFLY MET'MAP TEAM :

Programming & Development : Alexandra Zaïnal
Concept & Development : Baudouin d'Aumeries
Co-Development & Prog : Marc-Olivier Méhu
Technical & hardware support : Manuel Goepfert

Contact : metmap@orbifly.com




SOURCES & CREDITS :

   NOAA